Time;durP1;ratioP1;P1;durP2;ratioP2;P2;SDS_P1;SDS_P2;PMS_P1;PMS_P2;Temp;Humidity;BMP_temperature;BMP_pressure;BME280_temperature;BME280_humidity;BME280_pressure;Samples;Min_cycle;Max_cycle;Signal;HPM_P1;HPM_P2
2021/06/22 00:00:51;;;;;;;4.00;3.70;;;;;;;16.70;80.06;95335.98;1756715;81;21022;-60
2021/06/22 00:03:20;;;;;;;7.37;3.90;;;;;;;16.69;80.61;95339.13;1754899;81;21030;-61
2021/06/22 00:05:46;;;;;;;4.17;3.50;;;;;;;16.70;81.05;95343.97;1750995;81;21033;-61
2021/06/22 00:08:13;;;;;;;4.33;3.45;;;;;;;16.69;81.46;95347.59;1744344;81;21025;-61
2021/06/22 00:10:41;;;;;;;4.37;3.10;;;;;;;16.62;81.17;95349.19;1748631;81;21077;-61
2021/06/22 00:13:07;;;;;;;5.45;3.27;;;;;;;16.51;81.10;95348.83;1744659;81;20970;-60
2021/06/22 00:15:34;;;;;;;8.88;3.80;;;;;;;16.46;80.52;95344.19;1750816;81;21037;-60
2021/06/22 00:18:01;;;;;;;7.25;3.83;;;;;;;16.47;81.12;95342.38;1760835;81;21022;-60
2021/06/22 00:20:28;;;;;;;4.35;3.40;;;;;;;16.56;81.11;95339.30;1751306;81;21077;-60
2021/06/22 00:22:55;;;;;;;3.90;3.47;;;;;;;16.59;80.84;95333.35;1750760;81;21065;-60
2021/06/22 00:25:24;;;;;;;3.80;3.33;;;;;;;16.53;80.76;95331.42;1753166;81;21515;-60
2021/06/22 00:27:52;;;;;;;4.28;3.17;;;;;;;16.44;80.63;95328.73;1755026;81;21107;-61
2021/06/22 00:30:21;;;;;;;4.75;3.52;;;;;;;16.42;80.62;95335.45;1749913;81;21066;-60
2021/06/22 00:32:48;;;;;;;7.12;3.70;;;;;;;16.48;80.85;95331.66;1723096;81;21038;-60
2021/06/22 00:35:16;;;;;;;4.17;3.77;;;;;;;16.43;81.07;95329.21;1754805;81;21475;-60
2021/06/22 00:37:43;;;;;;;6.35;3.60;;;;;;;16.48;81.35;95322.78;1747080;81;21072;-60
2021/06/22 00:40:13;;;;;;;4.37;3.55;;;;;;;16.45;81.02;95333.11;1754937;81;21016;-60
2021/06/22 00:42:42;;;;;;;4.45;3.47;;;;;;;16.51;81.38;95326.66;1746798;81;21146;-60
2021/06/22 00:45:11;;;;;;;7.62;4.05;;;;;;;16.39;81.11;95324.09;1749453;81;21025;-60
2021/06/22 00:47:39;;;;;;;6.12;3.35;;;;;;;16.40;81.48;95328.02;1752980;81;21061;-61
2021/06/22 00:50:09;;;;;;;4.58;3.87;;;;;;;16.32;80.53;95328.81;1744374;81;21511;-61
2021/06/22 00:52:38;;;;;;;4.00;3.58;;;;;;;16.33;81.01;95332.34;1744052;81;21476;-60
2021/06/22 00:55:28;;;;;;;5.08;3.40;;;;;;;16.26;80.84;95335.77;1748083;81;21108;-62
2021/06/22 00:57:37;;;;;;;4.35;3.67;;;;;;;16.18;80.61;95348.09;1751424;81;21021;-61
2021/06/22 01:00:08;;;;;;;6.90;3.98;;;;;;;16.10;81.29;95338.25;1751544;81;21060;-60
2021/06/22 01:02:36;;;;;;;4.58;3.60;;;;;;;16.13;81.18;95343.44;1752798;81;21017;-60
2021/06/22 01:05:05;;;;;;;4.62;4.03;;;;;;;16.10;81.04;95345.34;1751308;81;21005;-60
2021/06/22 01:07:34;;;;;;;6.05;3.92;;;;;;;16.12;80.93;95344.82;1752728;81;21116;-62
2021/06/22 01:10:01;;;;;;;5.30;4.08;;;;;;;16.09;81.50;95345.82;1756968;81;21041;-60
2021/06/22 01:12:29;;;;;;;6.37;4.78;;;;;;;16.15;81.71;95343.34;1729646;81;21070;-61
2021/06/22 01:14:56;;;;;;;5.22;3.70;;;;;;;16.12;81.48;95343.02;1752979;81;21064;-60
2021/06/22 01:17:23;;;;;;;4.35;3.98;;;;;;;16.03;81.29;95335.46;1750991;81;21093;-60
2021/06/22 01:19:50;;;;;;;6.55;4.03;;;;;;;15.90;81.25;95333.80;1752253;81;21031;-60
2021/06/22 01:22:17;;;;;;;5.92;4.00;;;;;;;15.88;81.21;95329.48;1747063;81;21021;-61
2021/06/22 01:24:45;;;;;;;4.65;4.25;;;;;;;15.85;81.03;95327.82;1754945;81;21473;-61
2021/06/22 01:27:14;;;;;;;3.65;3.33;;;;;;;15.85;81.11;95329.16;1750086;81;21094;-60
2021/06/22 01:29:42;;;;;;;5.08;3.77;;;;;;;15.81;81.38;95318.23;1751306;81;21654;-61
2021/06/22 01:32:08;;;;;;;3.80;3.50;;;;;;;15.76;82.31;95325.08;1757050;81;20978;-61
2021/06/22 01:34:39;;;;;;;4.00;3.55;;;;;;;15.77;82.29;95317.95;1758899;81;21060;-61
2021/06/22 01:37:09;;;;;;;4.15;3.37;;;;;;;15.74;82.10;95315.44;1745532;81;21021;-61
2021/06/22 01:39:46;;;;;;;4.33;3.50;;;;;;;15.66;83.12;95306.42;1727146;81;21081;-61
2021/06/22 01:42:13;;;;;;;4.08;3.67;;;;;;;15.68;82.80;95309.03;1715488;82;21021;-60
2021/06/22 01:44:42;;;;;;;3.62;3.33;;;;;;;15.68;82.75;95303.23;1755245;81;21037;-60
2021/06/22 01:47:09;;;;;;;4.60;3.47;;;;;;;15.73;82.53;95299.95;1744585;81;21096;-60
2021/06/22 01:49:36;;;;;;;4.22;3.40;;;;;;;15.69;82.70;95292.13;1756953;81;20995;-61
2021/06/22 01:52:04;;;;;;;3.70;3.12;;;;;;;15.69;82.70;95294.78;1744381;81;21148;-60
2021/06/22 01:54:32;;;;;;;6.08;3.80;;;;;;;15.67;82.50;95286.86;1715308;82;21105;-61
2021/06/22 01:57:00;;;;;;;3.62;3.30;;;;;;;15.74;82.32;95283.52;1750767;81;21035;-60
2021/06/22 01:59:28;;;;;;;4.55;3.98;;;;;;;15.84;82.30;95283.98;1750503;81;21058;-60
2021/06/22 02:01:56;;;;;;;4.50;3.50;;;;;;;15.76;82.00;95286.98;1764692;81;22221;-60
2021/06/22 02:04:27;;;;;;;3.95;3.55;;;;;;;15.76;81.89;95287.84;1756739;81;21563;-60
2021/06/22 02:06:53;;;;;;;3.70;3.00;;;;;;;15.72;81.64;95286.70;1763620;81;21019;-60
2021/06/22 02:09:39;;;;;;;3.58;3.27;;;;;;;15.74;81.60;95291.02;1761074;81;21058;-60
2021/06/22 02:12:07;;;;;;;3.50;3.15;;;;;;;15.62;81.65;95291.98;1752728;81;21564;-61
2021/06/22 02:14:35;;;;;;;3.72;3.35;;;;;;;15.60;81.57;95292.08;1723511;81;21078;-60
2021/06/22 02:17:03;;;;;;;3.67;3.30;;;;;;;15.54;81.84;95301.16;1751981;81;21009;-60
2021/06/22 02:19:30;;;;;;;5.53;4.37;;;;;;;15.53;82.80;95313.20;1756765;81;21081;-61
2021/06/22 02:21:58;;;;;;;5.53;3.87;;;;;;;15.58;83.04;95328.03;1744751;82;20989;-60
2021/06/22 02:24:27;;;;;;;6.00;4.28;;;;;;;15.56;82.76;95333.02;1754756;81;21544;-60
2021/06/22 02:26:53;;;;;;;4.30;3.62;;;;;;;15.63;82.96;95341.14;1744812;81;21049;-60
2021/06/22 02:29:21;;;;;;;4.55;3.77;;;;;;;15.72;82.45;95343.89;1729596;81;21100;-60
2021/06/22 02:31:48;;;;;;;3.72;3.12;;;;;;;15.65;82.45;95355.67;1744486;81;21516;-60
2021/06/22 02:34:16;;;;;;;3.25;2.90;;;;;;;15.58;81.88;95353.29;1750922;81;21104;-61
2021/06/22 02:36:43;;;;;;;4.95;3.27;;;;;;;15.56;81.83;95358.27;1757043;81;21091;-60
2021/06/22 02:39:09;;;;;;;4.55;3.42;;;;;;;15.52;82.15;95363.31;1748709;81;20986;-60
2021/06/22 02:41:38;;;;;;;6.08;3.35;;;;;;;15.55;82.31;95361.41;1755908;81;21471;-60
2021/06/22 02:44:05;;;;;;;4.05;3.22;;;;;;;15.64;82.31;95361.47;1755223;81;21104;-60
2021/06/22 02:46:33;;;;;;;4.25;2.92;;;;;;;15.70;81.99;95363.03;1750614;81;21037;-60
2021/06/22 02:49:00;;;;;;;3.65;3.35;;;;;;;15.64;81.63;95357.95;1760644;81;21078;-60
2021/06/22 02:51:27;;;;;;;4.70;4.00;;;;;;;15.57;82.09;95362.21;1715389;81;20985;-61
2021/06/22 02:53:54;;;;;;;5.20;4.03;;;;;;;15.59;82.51;95359.00;1750802;81;21021;-60
2021/06/22 02:56:22;;;;;;;7.15;3.65;;;;;;;15.66;82.79;95355.62;1749184;81;21114;-60
2021/06/22 02:58:50;;;;;;;4.08;3.10;;;;;;;15.62;82.76;95351.36;1748653;81;21041;-60
2021/06/22 03:01:19;;;;;;;6.62;3.52;;;;;;;15.67;82.70;95346.70;1760987;81;21038;-60
2021/06/22 03:03:45;;;;;;;5.08;3.62;;;;;;;15.75;82.70;95341.12;1756833;81;21057;-60
2021/06/22 03:06:13;;;;;;;4.80;4.25;;;;;;;15.87;82.37;95343.70;1748685;81;21054;-60
2021/06/22 03:08:47;;;;;;;6.67;3.58;;;;;;;15.87;82.01;95339.70;1761265;81;21129;-60
2021/06/22 03:11:14;;;;;;;3.85;3.55;;;;;;;15.96;82.02;95346.83;1753211;81;21647;-60
2021/06/22 03:13:43;;;;;;;3.90;3.27;;;;;;;15.95;82.13;95350.44;1746151;81;21455;-60
2021/06/22 03:16:11;;;;;;;4.85;4.20;;;;;;;15.92;81.65;95358.52;1747821;81;21587;-60
2021/06/22 03:18:38;;;;;;;5.08;3.30;;;;;;;15.88;81.39;95362.27;1746638;81;21033;-60
2021/06/22 03:21:07;;;;;;;3.72;3.42;;;;;;;15.92;82.19;95360.33;1745935;81;20993;-60
2021/06/22 03:23:34;;;;;;;3.83;3.25;;;;;;;16.00;82.02;95359.08;1755072;81;21030;-61
2021/06/22 03:26:02;;;;;;;5.58;3.60;;;;;;;15.97;82.54;95364.52;1754545;81;21507;-60
2021/06/22 03:28:30;;;;;;;5.40;3.62;;;;;;;16.00;82.01;95363.07;1759186;81;21073;-60
2021/06/22 03:31:16;;;;;;;4.55;3.75;;;;;;;15.94;82.44;95363.31;1755353;81;20990;-60
2021/06/22 03:33:42;;;;;;;4.67;3.80;;;;;;;16.05;82.72;95363.31;1759172;81;21055;-61
2021/06/22 03:36:09;;;;;;;3.60;3.30;;;;;;;16.18;83.17;95360.54;1755151;81;21031;-60
2021/06/22 03:38:36;;;;;;;4.15;3.75;;;;;;;16.40;83.38;95360.42;1758975;81;21021;-61
2021/06/22 03:41:04;;;;;;;5.15;3.87;;;;;;;16.62;82.94;95354.98;1749409;81;21054;-60
2021/06/22 03:43:30;;;;;;;8.60;4.35;;;;;;;16.76;82.29;95353.89;1753755;81;21555;-60
2021/06/22 03:45:57;;;;;;;7.33;4.45;;;;;;;16.90;82.12;95360.39;1760969;81;21074;-60
2021/06/22 03:48:24;;;;;;;6.50;3.80;;;;;;;17.06;81.71;95365.41;1757534;81;21101;-60
2021/06/22 03:50:51;;;;;;;6.17;3.70;;;;;;;17.13;81.49;95361.97;1755303;81;21507;-61
2021/06/22 03:53:18;;;;;;;4.65;4.10;;;;;;;17.27;81.54;95363.50;1759078;81;21544;-61
2021/06/22 03:55:45;;;;;;;5.08;4.45;;;;;;;17.41;81.31;95354.81;1753587;81;21077;-60
2021/06/22 03:58:16;;;;;;;5.08;4.15;;;;;;;17.57;80.69;95354.47;1749088;81;21121;-60
2021/06/22 04:00:44;;;;;;;5.00;4.50;;;;;;;17.68;80.28;95357.45;1752354;81;21037;-61
2021/06/22 04:03:15;;;;;;;5.90;4.83;;;;;;;17.81;79.98;95350.19;1755243;81;21086;-60
2021/06/22 04:05:44;;;;;;;6.05;5.30;;;;;;;17.90;79.87;95346.59;1742810;81;21595;-61
2021/06/22 04:08:16;;;;;;;6.45;4.75;;;;;;;18.02;79.54;95337.09;1749494;81;21202;-61
2021/06/22 04:10:42;;;;;;;6.35;4.85;;;;;;;18.04;78.98;95336.55;1747985;81;21086;-60
2021/06/22 04:13:09;;;;;;;5.15;4.50;;;;;;;18.11;78.93;95333.06;1754811;81;21052;-60
2021/06/22 04:15:36;;;;;;;7.25;4.75;;;;;;;18.20;78.92;95327.25;1755293;81;21089;-60
2021/06/22 04:18:08;;;;;;;7.53;4.67;;;;;;;18.28;78.33;95325.51;1760677;81;21426;-61
2021/06/22 04:20:38;;;;;;;5.97;5.05;;;;;;;18.30;79.62;95324.96;1750809;81;21527;-61
2021/06/22 04:23:07;;;;;;;6.25;4.90;;;;;;;18.38;79.96;95325.41;1760594;81;21536;-61
2021/06/22 04:25:35;;;;;;;5.90;4.60;;;;;;;18.42;79.73;95325.64;1760303;81;21177;-66
2021/06/22 04:28:05;;;;;;;6.15;4.67;;;;;;;18.50;79.49;95324.75;1750750;81;21543;-61
2021/06/22 04:30:33;;;;;;;4.87;4.45;;;;;;;18.58;78.82;95331.87;1760852;81;21058;-61
2021/06/22 04:33:01;;;;;;;8.30;4.40;;;;;;;18.70;78.02;95328.16;1757226;81;21030;-62
2021/06/22 04:35:30;;;;;;;5.12;3.98;;;;;;;18.78;79.78;95328.63;1745845;82;21089;-61
2021/06/22 04:38:02;;;;;;;5.55;4.37;;;;;;;18.99;78.54;95323.88;1759331;81;21064;-61
2021/06/22 04:40:30;;;;;;;4.87;4.07;;;;;;;19.14;79.11;95315.47;1750743;81;21098;-61
2021/06/22 04:42:57;;;;;;;6.33;4.42;;;;;;;19.32;79.34;95317.09;1748993;81;21017;-60
2021/06/22 04:45:24;;;;;;;6.10;4.60;;;;;;;19.49;78.75;95321.48;1754888;81;21542;-61
2021/06/22 04:47:50;;;;;;;7.12;4.30;;;;;;;19.67;78.55;95320.91;1760174;81;21052;-61
2021/06/22 04:50:17;;;;;;;6.05;4.10;;;;;;;19.84;77.59;95337.32;1754070;81;21040;-60
2021/06/22 04:52:44;;;;;;;5.83;4.33;;;;;;;19.99;76.33;95332.39;1759986;81;21539;-60
2021/06/22 04:55:15;;;;;;;6.50;4.58;;;;;;;20.15;75.86;95340.36;1755007;81;21030;-60
2021/06/22 04:57:45;;;;;;;4.80;4.30;;;;;;;20.32;75.64;95340.20;1744376;81;21559;-60
2021/06/22 05:00:14;;;;;;;5.03;4.62;;;;;;;20.49;75.16;95343.67;1748817;81;21530;-61
2021/06/22 05:02:44;;;;;;;5.67;4.22;;;;;;;20.64;74.98;95349.95;1758358;81;21076;-60
2021/06/22 05:05:13;;;;;;;4.90;4.08;;;;;;;20.83;74.75;95355.00;1755687;81;21111;-59
2021/06/22 05:07:41;;;;;;;4.67;4.17;;;;;;;21.01;74.29;95349.80;1747665;81;21096;-63
2021/06/22 05:10:10;;;;;;;6.05;4.22;;;;;;;21.10;73.52;95358.62;1765387;81;21567;-59
2021/06/22 05:12:43;;;;;;;5.10;4.20;;;;;;;21.15;73.28;95363.20;1760576;81;21103;-59
2021/06/22 05:15:11;;;;;;;6.22;4.45;;;;;;;21.18;72.79;95364.34;1727863;82;20987;-60
2021/06/22 05:17:39;;;;;;;4.87;4.45;;;;;;;21.26;73.01;95368.36;1745584;81;21029;-61
2021/06/22 05:20:07;;;;;;;5.05;4.47;;;;;;;21.33;73.05;95366.52;1764085;81;21010;-60
2021/06/22 05:22:34;;;;;;;4.97;4.47;;;;;;;21.39;72.80;95368.86;1750564;81;21108;-60
2021/06/22 05:25:04;;;;;;;4.85;4.42;;;;;;;21.46;72.81;95376.02;1755087;81;21118;-60
2021/06/22 05:27:31;;;;;;;7.08;4.90;;;;;;;21.52;72.54;95368.92;1755182;81;21029;-60
2021/06/22 05:29:58;;;;;;;5.87;4.50;;;;;;;21.53;72.16;95375.14;1765056;81;21145;-62
2021/06/22 05:32:25;;;;;;;4.92;4.33;;;;;;;21.51;72.07;95377.92;1759255;81;21021;-60
2021/06/22 05:34:51;;;;;;;4.53;4.22;;;;;;;21.61;72.25;95373.67;1750802;81;21037;-60
2021/06/22 05:37:19;;;;;;;6.35;4.50;;;;;;;21.71;71.84;95363.19;1748480;81;21013;-59
2021/06/22 05:39:47;;;;;;;5.65;5.15;;;;;;;21.85;71.74;95365.42;1759642;81;21102;-59
2021/06/22 05:42:15;;;;;;;5.53;5.00;;;;;;;21.97;71.79;95359.23;1753982;81;21073;-59
2021/06/22 05:44:42;;;;;;;6.55;4.97;;;;;;;22.07;71.58;95360.82;1750719;81;21013;-60
2021/06/22 05:47:10;;;;;;;6.62;4.92;;;;;;;22.11;71.70;95358.31;1756747;81;21133;-61
2021/06/22 05:49:36;;;;;;;11.45;5.20;;;;;;;22.18;71.17;95353.77;1757587;81;21070;-60
2021/06/22 05:52:04;;;;;;;8.43;4.10;;;;;;;22.34;71.30;95350.91;1755238;81;21088;-60
2021/06/22 05:54:31;;;;;;;12.43;5.15;;;;;;;22.51;70.98;95352.44;1756854;81;21030;-61
2021/06/22 05:56:57;;;;;;;9.58;4.65;;;;;;;22.67;70.88;95354.41;1723205;81;21050;-60
2021/06/22 05:59:24;;;;;;;10.70;4.75;;;;;;;22.90;70.90;95355.47;1761465;81;21516;-60
2021/06/22 06:01:50;;;;;;;7.12;4.42;;;;;;;23.11;70.07;95357.16;1744759;81;21021;-60
2021/06/22 06:04:17;;;;;;;8.03;4.28;;;;;;;23.27;69.27;95352.87;1756636;81;21086;-60
2021/06/22 06:06:44;;;;;;;9.15;4.55;;;;;;;23.44;68.56;95361.56;1752704;81;21093;-60
2021/06/22 06:09:10;;;;;;;5.65;4.17;;;;;;;23.60;67.66;95362.14;1750920;81;21029;-60
2021/06/22 06:11:37;;;;;;;7.67;4.28;;;;;;;23.70;67.44;95359.63;1748681;81;21025;-60
2021/06/22 06:14:04;;;;;;;7.20;4.72;;;;;;;23.82;67.23;95361.44;1750680;81;21101;-60
2021/06/22 06:16:30;;;;;;;6.70;4.62;;;;;;;23.89;66.30;95365.41;1752659;81;21041;-59
2021/06/22 06:18:57;;;;;;;8.40;4.30;;;;;;;23.97;65.72;95364.83;1744431;81;21025;-61
2021/06/22 06:21:24;;;;;;;5.70;3.90;;;;;;;24.05;63.86;95367.80;1748458;81;21038;-61
2021/06/22 06:23:55;;;;;;;8.45;4.35;;;;;;;24.11;63.80;95368.66;1747907;81;21539;-60
2021/06/22 06:26:21;;;;;;;8.45;4.28;;;;;;;24.18;63.57;95363.18;1760274;81;21548;-60
2021/06/22 06:28:53;;;;;;;4.78;4.30;;;;;;;24.22;63.12;95358.43;1761210;81;21144;-60
2021/06/22 06:31:22;;;;;;;4.78;4.30;;;;;;;24.30;64.01;95361.39;1752156;81;21045;-60
2021/06/22 06:33:49;;;;;;;5.25;4.25;;;;;;;24.44;64.23;95357.62;1726007;81;21053;-60
2021/06/22 06:36:16;;;;;;;5.17;3.87;;;;;;;24.54;64.55;95357.30;1754490;81;21523;-60
2021/06/22 06:38:43;;;;;;;7.53;4.40;;;;;;;24.59;64.47;95354.25;1744326;81;21105;-60
2021/06/22 06:41:10;;;;;;;4.97;4.40;;;;;;;24.63;65.18;95350.84;1744306;81;21507;-60
2021/06/22 06:43:37;;;;;;;7.78;4.62;;;;;;;24.69;65.59;95347.16;1758950;81;21183;-60
2021/06/22 06:46:03;;;;;;;4.67;4.28;;;;;;;24.79;65.72;95350.84;1750546;81;21076;-61
2021/06/22 06:48:32;;;;;;;5.17;4.75;;;;;;;24.87;65.93;95353.44;1756410;81;21071;-62
2021/06/22 06:50:59;;;;;;;7.37;4.40;;;;;;;24.82;65.31;95354.67;1759095;81;21093;-61
2021/06/22 06:53:25;;;;;;;7.67;4.72;;;;;;;24.83;65.33;95352.83;1745556;81;21417;-60
2021/06/22 06:55:52;;;;;;;5.10;4.70;;;;;;;24.87;66.14;95359.69;1755228;81;21549;-60
2021/06/22 06:58:19;;;;;;;4.65;4.25;;;;;;;24.90;66.06;95355.42;1753490;81;21088;-59
2021/06/22 07:00:46;;;;;;;5.00;4.55;;;;;;;24.87;65.62;95361.03;1744746;81;21053;-61
2021/06/22 07:03:13;;;;;;;5.28;4.50;;;;;;;24.83;65.34;95358.23;1799062;78;21043;-62
2021/06/22 07:05:40;;;;;;;9.28;4.70;;;;;;;24.81;65.42;95361.53;1801820;79;21509;-63
2021/06/22 07:08:07;;;;;;;5.90;4.72;;;;;;;24.77;65.38;95366.79;1781113;79;21021;-63
2021/06/22 07:10:34;;;;;;;5.90;4.33;;;;;;;24.83;65.57;95365.83;1789240;79;21084;-67
2021/06/22 07:13:04;;;;;;;6.67;4.83;;;;;;;24.88;65.01;95366.81;1800492;79;21093;-62
2021/06/22 07:15:32;;;;;;;5.47;4.28;;;;;;;24.94;64.95;95360.06;1785861;79;21079;-61
2021/06/22 07:17:59;;;;;;;9.28;4.55;;;;;;;25.00;65.30;95362.30;1806020;78;21116;-61
2021/06/22 07:20:26;;;;;;;5.67;4.70;;;;;;;25.04;64.38;95354.30;1817955;78;21127;-62
2021/06/22 07:22:53;;;;;;;24.85;4.80;;;;;;;25.07;64.48;95364.00;1825998;78;20998;-61
2021/06/22 07:25:25;;;;;;;5.95;4.97;;;;;;;25.00;64.08;95359.60;1765515;81;21119;-61
2021/06/22 07:27:49;;;;;;;4.70;4.15;;;;;;;25.00;63.46;95360.45;1751322;81;21088;-61
2021/06/22 07:30:17;;;;;;;5.85;4.50;;;;;;;25.11;64.21;95365.48;1794078;79;21517;-67
2021/06/22 07:32:44;;;;;;;5.17;4.67;;;;;;;25.22;63.76;95365.50;1797691;79;21176;-64
2021/06/22 07:35:13;;;;;;;5.90;4.17;;;;;;;25.33;63.67;95370.06;1801208;79;21084;-66
2021/06/22 07:37:40;;;;;;;8.45;4.30;;;;;;;25.45;62.62;95373.09;1799136;79;21159;-65
2021/06/22 07:40:09;;;;;;;7.62;4.87;;;;;;;25.55;62.83;95376.79;1799273;79;21102;-67
2021/06/22 07:42:36;;;;;;;4.97;4.50;;;;;;;25.60;61.60;95373.69;1798928;79;21503;-66
2021/06/22 07:45:05;;;;;;;7.22;4.90;;;;;;;25.72;62.51;95378.09;1753217;81;21032;-64
2021/06/22 07:47:32;;;;;;;5.25;4.47;;;;;;;25.78;62.30;95374.02;1746606;81;21064;-65
2021/06/22 07:50:00;;;;;;;4.85;4.45;;;;;;;25.87;61.38;95378.20;1744491;81;21562;-60
2021/06/22 07:52:26;;;;;;;5.25;4.75;;;;;;;25.98;60.95;95377.80;1739867;81;21059;-62
2021/06/22 07:54:53;;;;;;;4.87;4.37;;;;;;;26.02;60.87;95380.13;1741177;81;21025;-62
2021/06/22 07:57:19;;;;;;;7.55;4.95;;;;;;;26.14;60.74;95379.61;1746016;81;21484;-61
2021/06/22 07:59:46;;;;;;;5.85;4.83;;;;;;;26.19;59.02;95376.52;1740513;81;21089;-61
2021/06/22 08:02:13;;;;;;;7.25;4.35;;;;;;;26.24;59.77;95375.13;1737685;81;21014;-61
2021/06/22 08:04:39;;;;;;;5.42;4.55;;;;;;;26.38;60.11;95377.16;1738631;81;21037;-61
2021/06/22 08:07:07;;;;;;;5.28;4.10;;;;;;;26.50;59.94;95385.59;1738778;81;21022;-61
2021/06/22 08:09:34;;;;;;;7.08;4.45;;;;;;;26.63;59.71;95383.57;1748484;81;21085;-60
2021/06/22 08:12:01;;;;;;;8.93;4.58;;;;;;;26.68;58.88;95381.33;1738087;81;20990;-60
2021/06/22 08:14:27;;;;;;;7.87;5.03;;;;;;;26.81;59.41;95377.56;1756252;81;21025;-60
2021/06/22 08:16:54;;;;;;;9.38;5.35;;;;;;;26.87;58.36;95378.41;1739231;81;20987;-60
2021/06/22 08:19:21;;;;;;;6.45;4.45;;;;;;;26.94;58.28;95370.97;1742472;81;21516;-60
2021/06/22 08:21:47;;;;;;;10.13;5.05;;;;;;;27.05;58.73;95372.72;1738205;81;21018;-60
2021/06/22 08:24:14;;;;;;;6.87;4.58;;;;;;;27.13;57.86;95368.84;1737899;81;21025;-60
2021/06/22 08:26:40;;;;;;;7.72;4.33;;;;;;;27.22;57.71;95371.78;1739426;81;21077;-60
2021/06/22 08:29:07;;;;;;;6.47;4.33;;;;;;;27.28;57.18;95370.72;1750009;81;21074;-60
2021/06/22 08:31:33;;;;;;;4.85;4.17;;;;;;;27.43;57.67;95369.01;1733717;81;21115;-60
2021/06/22 08:34:00;;;;;;;7.03;4.20;;;;;;;27.62;56.54;95365.87;1756121;81;21517;-60
2021/06/22 08:36:26;;;;;;;6.72;4.17;;;;;;;27.75;57.02;95372.89;1748246;81;21030;-60
2021/06/22 08:38:53;;;;;;;4.70;4.30;;;;;;;27.87;56.44;95374.53;1742505;81;21476;-60
2021/06/22 08:41:22;;;;;;;6.12;4.20;;;;;;;28.01;55.72;95369.18;1720407;82;20998;-61
2021/06/22 08:43:51;;;;;;;7.25;4.40;;;;;;;28.18;56.62;95368.48;1737188;81;21106;-60
2021/06/22 08:46:17;;;;;;;4.92;4.17;;;;;;;28.36;55.55;95366.42;1735274;81;21062;-60
2021/06/22 08:48:45;;;;;;;8.58;4.25;;;;;;;28.49;54.83;95373.80;1748697;81;21090;-60
2021/06/22 08:51:14;;;;;;;5.37;4.55;;;;;;;28.62;55.38;95376.22;1735093;81;21041;-60
2021/06/22 08:53:41;;;;;;;7.53;4.20;;;;;;;28.71;55.02;95378.08;1743377;81;21061;-60
2021/06/22 08:56:08;;;;;;;5.97;3.87;;;;;;;28.82;55.14;95371.62;1737672;81;21069;-60
2021/06/22 08:58:35;;;;;;;5.90;4.20;;;;;;;28.84;53.63;95375.05;1736634;81;21018;-60
2021/06/22 09:01:01;;;;;;;5.35;3.83;;;;;;;28.82;53.21;95372.47;1739178;81;21041;-61
2021/06/22 09:03:28;;;;;;;6.00;3.98;;;;;;;28.90;54.03;95376.70;1735035;81;21473;-60
2021/06/22 09:05:59;;;;;;;4.30;3.90;;;;;;;29.06;54.65;95377.97;1750918;81;21011;-60
2021/06/22 09:08:31;;;;;;;7.62;3.75;;;;;;;29.16;52.92;95380.16;1750815;80;20991;-60
2021/06/22 09:11:15;;;;;;;4.55;3.60;;;;;;;29.27;52.26;95384.55;1748704;81;21153;-60
2021/06/22 09:13:44;;;;;;;3.67;3.37;;;;;;;29.53;53.25;95384.25;1739615;81;21545;-60
2021/06/22 09:16:15;;;;;;;4.78;3.20;;;;;;;29.79;50.50;95386.77;1754283;81;20979;-60
2021/06/22 09:18:45;;;;;;;3.98;3.30;;;;;;;29.88;51.73;95383.15;1759953;81;21101;-59
2021/06/22 09:21:22;;;;;;;6.05;3.22;;;;;;;29.96;47.64;95384.59;1751467;81;21017;-61
2021/06/22 09:23:52;;;;;;;4.78;3.55;;;;;;;29.89;48.33;95398.48;1739318;81;21163;-60
2021/06/22 09:26:25;;;;;;;4.05;3.40;;;;;;;30.02;47.47;95392.67;1738424;81;21038;-60
2021/06/22 09:29:14;;;;;;;3.52;3.22;;;;;;;30.18;47.61;95383.31;1759392;81;21022;-60
2021/06/22 09:32:00;;;;;;;5.28;3.75;;;;;;;30.27;47.02;95388.39;1734761;81;21017;-60
2021/06/22 09:34:28;;;;;;;4.35;3.60;;;;;;;30.22;45.32;95390.69;1743639;81;21564;-61
2021/06/22 09:36:59;;;;;;;5.92;3.65;;;;;;;30.20;47.43;95388.95;1751491;81;21039;-59
2021/06/22 09:39:28;;;;;;;5.42;3.77;;;;;;;30.22;46.57;95391.53;1736587;81;21037;-60
2021/06/22 09:41:56;;;;;;;3.87;3.45;;;;;;;30.25;47.12;95393.12;1743713;81;21180;-60
2021/06/22 09:44:29;;;;;;;5.10;3.50;;;;;;;30.21;47.62;95395.25;1745550;81;21037;-60
2021/06/22 09:46:59;;;;;;;5.75;3.22;;;;;;;30.07;47.82;95392.56;1743978;81;21090;-60
2021/06/22 09:49:29;;;;;;;3.87;3.10;;;;;;;30.04;47.22;95393.36;1745731;81;21499;-60
2021/06/22 09:54:36;;;;;;;4.75;3.50;;;;;;;30.33;47.75;95395.41;1748318;81;21031;-60
2021/06/22 09:57:18;;;;;;;5.25;3.67;;;;;;;30.71;48.13;95403.42;1748277;81;21556;-60
2021/06/22 10:00:05;;;;;;;4.42;3.70;;;;;;;31.05;47.83;95394.03;1748570;81;21525;-60
2021/06/22 10:02:30;;;;;;;5.83;3.90;;;;;;;31.20;44.42;95392.95;1734922;81;21083;-60
2021/06/22 10:05:00;;;;;;;4.92;3.90;;;;;;;31.15;44.39;95391.21;1722247;81;21094;-60
2021/06/22 10:07:29;;;;;;;6.08;3.62;;;;;;;31.19;43.77;95387.13;1749912;81;21038;-61
2021/06/22 10:10:02;;;;;;;5.22;3.75;;;;;;;31.21;44.92;95388.68;1745782;81;21025;-59
2021/06/22 10:12:31;;;;;;;7.45;3.65;;;;;;;31.44;45.59;95384.92;1739550;81;21053;-60
2021/06/22 10:15:00;;;;;;;6.30;3.52;;;;;;;31.67;45.09;95383.00;1739412;81;21064;-61
2021/06/22 10:17:29;;;;;;;7.90;3.87;;;;;;;31.80;44.86;95388.00;1739049;81;21023;-60
2021/06/22 10:20:00;;;;;;;3.60;3.30;;;;;;;31.89;46.58;95391.95;1746473;81;21026;-61
2021/06/22 10:22:31;;;;;;;3.70;3.40;;;;;;;31.98;43.33;95387.92;1737141;81;21024;-60
2021/06/22 10:25:00;;;;;;;4.80;3.37;;;;;;;31.62;43.21;95388.09;1739158;81;21452;-60
2021/06/22 10:27:29;;;;;;;4.03;3.22;;;;;;;31.30;41.75;95383.27;1742257;81;21494;-60
2021/06/22 10:30:02;;;;;;;4.80;3.40;;;;;;;31.19;43.55;95387.13;1740756;81;21139;-60
2021/06/22 10:32:31;;;;;;;11.70;3.27;;;;;;;31.27;44.61;95389.91;1747455;81;21015;-60
2021/06/22 10:35:08;;;;;;;6.75;3.17;;;;;;;31.41;44.34;95376.23;1740732;81;21491;-60
2021/06/22 10:37:55;;;;;;;4.00;3.20;;;;;;;31.61;44.10;95376.33;1737556;81;21065;-60
2021/06/22 10:40:26;;;;;;;3.92;3.22;;;;;;;31.72;43.60;95376.55;1746298;81;21050;-60
2021/06/22 10:43:01;;;;;;;7.40;3.70;;;;;;;32.07;43.01;95378.75;1754504;81;21021;-60
2021/06/22 10:45:28;;;;;;;3.67;3.37;;;;;;;32.06;42.26;95372.45;1735287;81;21027;-60
2021/06/22 10:48:03;;;;;;;5.00;3.50;;;;;;;32.13;41.80;95364.45;1750806;81;21056;-60
2021/06/22 10:50:31;;;;;;;3.80;3.20;;;;;;;32.00;41.77;95370.88;1738703;81;21055;-60
2021/06/22 10:53:09;;;;;;;4.23;3.40;;;;;;;31.89;40.83;95370.13;1744237;81;21501;-60
2021/06/22 10:55:43;;;;;;;3.72;3.37;;;;;;;31.95;41.95;95369.16;1736242;81;21839;-60
2021/06/22 10:58:16;;;;;;;6.00;3.17;;;;;;;32.09;40.41;95363.06;1763494;81;21041;-60
2021/06/22 11:01:00;;;;;;;5.92;3.40;;;;;;;32.14;39.63;95365.30;1739086;81;21057;-60
2021/06/22 11:03:33;;;;;;;5.00;3.50;;;;;;;32.13;41.46;95368.55;1748516;81;21030;-60
2021/06/22 11:06:21;;;;;;;5.25;3.50;;;;;;;31.98;40.89;95369.70;1737788;81;21031;-60
2021/06/22 11:08:48;;;;;;;8.63;3.50;;;;;;;31.76;40.38;95366.17;1742903;81;21141;-60
2021/06/22 11:11:19;;;;;;;5.50;3.40;;;;;;;31.84;41.99;95359.37;1755539;81;21065;-60
2021/06/22 11:13:55;;;;;;;3.87;3.50;;;;;;;32.05;42.56;95363.89;1764831;81;21022;-60
2021/06/22 11:16:27;;;;;;;5.30;3.30;;;;;;;32.24;42.40;95360.03;1754252;81;20999;-60
2021/06/22 11:19:04;;;;;;;7.20;3.40;;;;;;;32.33;39.94;95363.61;1739472;80;21045;-60
2021/06/22 11:21:46;;;;;;;4.75;3.35;;;;;;;32.34;38.23;95366.70;1739269;81;21013;-60
2021/06/22 11:24:19;;;;;;;3.60;3.30;;;;;;;32.42;38.54;95360.41;1742917;81;21093;-60
2021/06/22 11:26:58;;;;;;;7.45;3.77;;;;;;;32.58;38.63;95356.34;1752881;81;21039;-60
2021/06/22 11:29:23;;;;;;;4.45;3.20;;;;;;;32.72;38.77;95353.45;1761560;81;21039;-60
2021/06/22 11:31:58;;;;;;;4.30;3.33;;;;;;;32.79;38.00;95350.91;1733420;81;21043;-60
2021/06/22 11:34:34;;;;;;;4.08;3.27;;;;;;;32.86;37.90;95351.41;1744319;81;21532;-60
2021/06/22 11:37:15;;;;;;;5.15;3.87;;;;;;;33.07;35.93;95344.58;1738431;81;21027;-60
2021/06/22 11:40:14;;;;;;;5.87;3.40;;;;;;;33.06;34.38;95346.44;1733861;81;21564;-60
2021/06/22 11:42:43;;;;;;;5.62;3.20;;;;;;;33.04;35.47;95346.27;1738517;81;21069;-60
2021/06/22 11:45:15;;;;;;;5.60;3.08;;;;;;;33.18;36.71;95344.20;1737097;81;21033;-61